sensor_id;sensor_type;location;lat;lon;timestamp;temperature;humidity
23405;DHT22;11875;49.356;2.718;2022-08-19T00:00:02;21.70;99.90
23405;DHT22;11875;49.356;2.718;2022-08-19T00:02:28;21.60;99.90
23405;DHT22;11875;49.356;2.718;2022-08-19T00:04:53;21.60;99.90
23405;DHT22;11875;49.356;2.718;2022-08-19T00:07:19;21.60;99.90
23405;DHT22;11875;49.356;2.718;2022-08-19T00:09:45;21.50;99.90
23405;DHT22;11875;49.356;2.718;2022-08-19T00:12:11;21.50;99.90
23405;DHT22;11875;49.356;2.718;2022-08-19T00:14:37;21.60;99.90
23405;DHT22;11875;49.356;2.718;2022-08-19T00:17:05;21.50;99.90
23405;DHT22;11875;49.356;2.718;2022-08-19T00:19:32;21.50;99.90
23405;DHT22;11875;49.356;2.718;2022-08-19T00:21:58;21.50;99.90
23405;DHT22;11875;49.356;2.718;2022-08-19T00:24:24;21.50;99.90
23405;DHT22;11875;49.356;2.718;2022-08-19T00:26:51;21.40;99.90
23405;DHT22;11875;49.356;2.718;2022-08-19T00:29:19;21.40;99.90
23405;DHT22;11875;49.356;2.718;2022-08-19T00:31:46;21.40;99.90
23405;DHT22;11875;49.356;2.718;2022-08-19T00:34:14;21.40;99.90
23405;DHT22;11875;49.356;2.718;2022-08-19T00:36:42;21.40;99.90
23405;DHT22;11875;49.356;2.718;2022-08-19T00:39:09;21.30;99.90
23405;DHT22;11875;49.356;2.718;2022-08-19T00:41:35;21.20;99.90
23405;DHT22;11875;49.356;2.718;2022-08-19T00:44:05;21.20;99.90
23405;DHT22;11875;49.356;2.718;2022-08-19T00:46:33;21.20;99.90
23405;DHT22;11875;49.356;2.718;2022-08-19T00:49:03;21.10;99.90
23405;DHT22;11875;49.356;2.718;2022-08-19T00:51:31;21.10;99.90
23405;DHT22;11875;49.356;2.718;2022-08-19T00:53:58;21.10;99.90
23405;DHT22;11875;49.356;2.718;2022-08-19T00:56:24;21.10;99.90
23405;DHT22;11875;49.356;2.718;2022-08-19T00:58:54;21.10;99.90
23405;DHT22;11875;49.356;2.718;2022-08-19T01:01:21;21.00;99.90
23405;DHT22;11875;49.356;2.718;2022-08-19T01:03:47;20.90;99.90
23405;DHT22;11875;49.356;2.718;2022-08-19T01:06:13;20.90;99.90
23405;DHT22;11875;49.356;2.718;2022-08-19T01:08:38;20.80;99.90
23405;DHT22;11875;49.356;2.718;2022-08-19T01:11:04;20.70;99.90
23405;DHT22;11875;49.356;2.718;2022-08-19T01:13:32;20.70;99.90
23405;DHT22;11875;49.356;2.718;2022-08-19T01:16:08;20.70;99.90
23405;DHT22;11875;49.356;2.718;2022-08-19T01:18:41;20.60;99.90
23405;DHT22;11875;49.356;2.718;2022-08-19T01:23:47;20.70;99.90
23405;DHT22;11875;49.356;2.718;2022-08-19T01:26:22;20.70;99.90
23405;DHT22;11875;49.356;2.718;2022-08-19T01:28:51;20.70;99.90
23405;DHT22;11875;49.356;2.718;2022-08-19T01:31:21;20.70;99.90
23405;DHT22;11875;49.356;2.718;2022-08-19T01:33:48;20.70;99.90
23405;DHT22;11875;49.356;2.718;2022-08-19T01:36:25;20.60;99.90
23405;DHT22;11875;49.356;2.718;2022-08-19T01:38:52;20.70;99.90
23405;DHT22;11875;49.356;2.718;2022-08-19T01:41:18;20.60;99.90
23405;DHT22;11875;49.356;2.718;2022-08-19T01:43:45;20.60;99.90
23405;DHT22;11875;49.356;2.718;2022-08-19T01:46:11;20.60;99.90
23405;DHT22;11875;49.356;2.718;2022-08-19T01:48:39;20.60;99.90
23405;DHT22;11875;49.356;2.718;2022-08-19T01:51:06;20.50;99.90
23405;DHT22;11875;49.356;2.718;2022-08-19T01:53:32;20.50;99.90
23405;DHT22;11875;49.356;2.718;2022-08-19T01:55:58;20.50;99.90
23405;DHT22;11875;49.356;2.718;2022-08-19T01:58:28;20.50;99.90
23405;DHT22;11875;49.356;2.718;2022-08-19T02:00:56;20.50;99.90
23405;DHT22;11875;49.356;2.718;2022-08-19T02:03:22;20.50;99.90
23405;DHT22;11875;49.356;2.718;2022-08-19T02:05:53;20.50;99.90
23405;DHT22;11875;49.356;2.718;2022-08-19T02:08:18;20.40;99.90
23405;DHT22;11875;49.356;2.718;2022-08-19T02:10:44;20.40;99.90
23405;DHT22;11875;49.356;2.718;2022-08-19T02:13:11;20.30;99.90
23405;DHT22;11875;49.356;2.718;2022-08-19T02:15:38;20.20;99.90
23405;DHT22;11875;49.356;2.718;2022-08-19T02:18:03;20.20;99.90
23405;DHT22;11875;49.356;2.718;2022-08-19T02:20:29;20.20;99.90
23405;DHT22;11875;49.356;2.718;2022-08-19T02:22:54;20.20;99.90
23405;DHT22;11875;49.356;2.718;2022-08-19T02:25:20;20.20;99.90
23405;DHT22;11875;49.356;2.718;2022-08-19T02:27:46;20.20;99.90
23405;DHT22;11875;49.356;2.718;2022-08-19T02:30:16;20.10;99.90
23405;DHT22;11875;49.356;2.718;2022-08-19T02:32:42;20.20;99.90
23405;DHT22;11875;49.356;2.718;2022-08-19T02:35:08;20.10;99.90
23405;DHT22;11875;49.356;2.718;2022-08-19T02:37:34;20.10;99.90
23405;DHT22;11875;49.356;2.718;2022-08-19T02:40:19;20.10;99.90
23405;DHT22;11875;49.356;2.718;2022-08-19T02:42:45;20.10;99.90
23405;DHT22;11875;49.356;2.718;2022-08-19T02:45:12;20.10;99.90
23405;DHT22;11875;49.356;2.718;2022-08-19T02:47:38;20.10;99.90
23405;DHT22;11875;49.356;2.718;2022-08-19T02:50:05;20.00;99.90
23405;DHT22;11875;49.356;2.718;2022-08-19T02:52:32;20.10;99.90
23405;DHT22;11875;49.356;2.718;2022-08-19T02:54:58;20.10;99.90
23405;DHT22;11875;49.356;2.718;2022-08-19T02:57:24;20.10;99.90
23405;DHT22;11875;49.356;2.718;2022-08-19T02:59:50;20.20;99.90
23405;DHT22;11875;49.356;2.718;2022-08-19T03:02:16;20.10;99.90
23405;DHT22;11875;49.356;2.718;2022-08-19T03:04:42;20.20;99.90
23405;DHT22;11875;49.356;2.718;2022-08-19T03:07:08;20.10;99.90
23405;DHT22;11875;49.356;2.718;2022-08-19T03:09:37;20.20;99.90
23405;DHT22;11875;49.356;2.718;2022-08-19T03:12:04;20.20;99.90
23405;DHT22;11875;49.356;2.718;2022-08-19T03:14:33;20.20;99.90
23405;DHT22;11875;49.356;2.718;2022-08-19T03:16:59;20.30;99.90
23405;DHT22;11875;49.356;2.718;2022-08-19T03:19:25;20.30;99.90
23405;DHT22;11875;49.356;2.718;2022-08-19T03:21:51;20.20;99.90
23405;DHT22;11875;49.356;2.718;2022-08-19T03:24:18;20.20;99.90
23405;DHT22;11875;49.356;2.718;2022-08-19T03:26:50;20.10;99.90
23405;DHT22;11875;49.356;2.718;2022-08-19T03:29:16;20.10;99.90
23405;DHT22;11875;49.356;2.718;2022-08-19T03:31:43;20.10;99.90
23405;DHT22;11875;49.356;2.718;2022-08-19T03:34:11;20.20;99.90
23405;DHT22;11875;49.356;2.718;2022-08-19T03:36:38;20.20;99.90
23405;DHT22;11875;49.356;2.718;2022-08-19T03:39:04;20.20;99.90
23405;DHT22;11875;49.356;2.718;2022-08-19T03:41:32;20.20;99.90
23405;DHT22;11875;49.356;2.718;2022-08-19T03:43:58;20.10;99.90
23405;DHT22;11875;49.356;2.718;2022-08-19T03:46:26;20.10;99.90
23405;DHT22;11875;49.356;2.718;2022-08-19T03:48:54;20.00;99.90
23405;DHT22;11875;49.356;2.718;2022-08-19T03:51:32;19.80;99.90
23405;DHT22;11875;49.356;2.718;2022-08-19T03:54:00;19.70;99.90
23405;DHT22;11875;49.356;2.718;2022-08-19T03:56:27;19.70;99.90
23405;DHT22;11875;49.356;2.718;2022-08-19T03:58:55;19.80;99.90
23405;DHT22;11875;49.356;2.718;2022-08-19T04:01:24;19.90;99.90
23405;DHT22;11875;49.356;2.718;2022-08-19T04:03:52;19.90;99.90
23405;DHT22;11875;49.356;2.718;2022-08-19T04:06:24;19.90;99.90
23405;DHT22;11875;49.356;2.718;2022-08-19T04:08:51;19.90;99.90
23405;DHT22;11875;49.356;2.718;2022-08-19T04:11:21;19.90;99.90
23405;DHT22;11875;49.356;2.718;2022-08-19T04:13:48;19.80;99.90
23405;DHT22;11875;49.356;2.718;2022-08-19T04:16:14;19.80;99.90
23405;DHT22;11875;49.356;2.718;2022-08-19T04:18:40;19.00;99.90
23405;DHT22;11875;49.356;2.718;2022-08-19T04:21:07;19.70;99.90
23405;DHT22;11875;49.356;2.718;2022-08-19T04:23:34;19.90;99.90
23405;DHT22;11875;49.356;2.718;2022-08-19T04:26:01;20.00;99.90
23405;DHT22;11875;49.356;2.718;2022-08-19T04:28:27;20.10;99.90
23405;DHT22;11875;49.356;2.718;2022-08-19T04:30:54;20.10;99.90
23405;DHT22;11875;49.356;2.718;2022-08-19T04:33:22;20.10;99.90
23405;DHT22;11875;49.356;2.718;2022-08-19T04:35:50;20.20;99.90
23405;DHT22;11875;49.356;2.718;2022-08-19T04:38:20;20.30;99.90
23405;DHT22;11875;49.356;2.718;2022-08-19T04:40:50;20.20;99.90
23405;DHT22;11875;49.356;2.718;2022-08-19T04:43:36;20.20;99.90
23405;DHT22;11875;49.356;2.718;2022-08-19T04:46:07;20.20;99.90
23405;DHT22;11875;49.356;2.718;2022-08-19T04:48:33;20.30;99.90
23405;DHT22;11875;49.356;2.718;2022-08-19T04:50:59;20.20;99.90
23405;DHT22;11875;49.356;2.718;2022-08-19T04:53:26;20.10;99.90
23405;DHT22;11875;49.356;2.718;2022-08-19T04:55:57;20.20;99.90
23405;DHT22;11875;49.356;2.718;2022-08-19T04:58:24;20.30;99.90
23405;DHT22;11875;49.356;2.718;2022-08-19T05:00:50;20.30;99.90
23405;DHT22;11875;49.356;2.718;2022-08-19T05:03:15;20.30;99.90
23405;DHT22;11875;49.356;2.718;2022-08-19T05:05:43;20.30;99.90
23405;DHT22;11875;49.356;2.718;2022-08-19T05:08:10;20.20;99.90
23405;DHT22;11875;49.356;2.718;2022-08-19T05:10:39;20.20;99.90
23405;DHT22;11875;49.356;2.718;2022-08-19T05:13:05;20.00;99.90
23405;DHT22;11875;49.356;2.718;2022-08-19T05:15:31;20.10;99.90
23405;DHT22;11875;49.356;2.718;2022-08-19T05:17:56;20.20;99.90
23405;DHT22;11875;49.356;2.718;2022-08-19T05:20:41;20.20;99.90
23405;DHT22;11875;49.356;2.718;2022-08-19T05:23:26;20.20;99.90
23405;DHT22;11875;49.356;2.718;2022-08-19T05:25:52;20.20;99.90
23405;DHT22;11875;49.356;2.718;2022-08-19T05:28:19;20.30;99.90
23405;DHT22;11875;49.356;2.718;2022-08-19T05:30:45;20.40;99.90
23405;DHT22;11875;49.356;2.718;2022-08-19T05:33:11;20.40;99.90
23405;DHT22;11875;49.356;2.718;2022-08-19T05:35:38;20.40;99.90
23405;DHT22;11875;49.356;2.718;2022-08-19T05:38:05;20.30;99.90
23405;DHT22;11875;49.356;2.718;2022-08-19T05:40:34;20.20;99.90
23405;DHT22;11875;49.356;2.718;2022-08-19T05:43:02;20.20;99.90
23405;DHT22;11875;49.356;2.718;2022-08-19T05:45:27;20.30;99.90
23405;DHT22;11875;49.356;2.718;2022-08-19T05:47:53;20.40;99.90
23405;DHT22;11875;49.356;2.718;2022-08-19T05:50:19;20.30;99.90
23405;DHT22;11875;49.356;2.718;2022-08-19T05:52:45;20.40;99.90
23405;DHT22;11875;49.356;2.718;2022-08-19T05:55:11;20.40;99.90
23405;DHT22;11875;49.356;2.718;2022-08-19T05:57:36;20.40;99.90
23405;DHT22;11875;49.356;2.718;2022-08-19T06:00:06;20.40;99.90
23405;DHT22;11875;49.356;2.718;2022-08-19T06:02:36;20.50;99.90
23405;DHT22;11875;49.356;2.718;2022-08-19T06:05:03;20.60;99.90
23405;DHT22;11875;49.356;2.718;2022-08-19T06:07:29;20.50;99.90
23405;DHT22;11875;49.356;2.718;2022-08-19T06:09:55;20.50;99.90
23405;DHT22;11875;49.356;2.718;2022-08-19T06:12:21;20.50;99.90
23405;DHT22;11875;49.356;2.718;2022-08-19T06:14:56;20.60;99.90
23405;DHT22;11875;49.356;2.718;2022-08-19T06:17:21;20.60;99.90
23405;DHT22;11875;49.356;2.718;2022-08-19T06:19:50;20.60;99.90
23405;DHT22;11875;49.356;2.718;2022-08-19T06:22:15;20.60;99.90
23405;DHT22;11875;49.356;2.718;2022-08-19T06:24:41;20.60;99.90
23405;DHT22;11875;49.356;2.718;2022-08-19T06:27:07;20.70;99.90
23405;DHT22;11875;49.356;2.718;2022-08-19T06:29:33;20.60;99.90
23405;DHT22;11875;49.356;2.718;2022-08-19T06:32:01;20.70;99.90
23405;DHT22;11875;49.356;2.718;2022-08-19T06:34:30;20.70;99.90
23405;DHT22;11875;49.356;2.718;2022-08-19T06:36:57;20.80;99.90
23405;DHT22;11875;49.356;2.718;2022-08-19T06:39:29;20.80;99.90
23405;DHT22;11875;49.356;2.718;2022-08-19T06:41:58;20.90;99.90
23405;DHT22;11875;49.356;2.718;2022-08-19T06:44:28;21.00;99.90
23405;DHT22;11875;49.356;2.718;2022-08-19T06:46:54;20.90;99.90
23405;DHT22;11875;49.356;2.718;2022-08-19T06:49:21;20.70;99.90
23405;DHT22;11875;49.356;2.718;2022-08-19T06:51:48;20.50;99.90
23405;DHT22;11875;49.356;2.718;2022-08-19T06:54:16;20.60;99.90
23405;DHT22;11875;49.356;2.718;2022-08-19T06:56:42;20.70;99.90
23405;DHT22;11875;49.356;2.718;2022-08-19T06:59:14;20.70;99.90
23405;DHT22;11875;49.356;2.718;2022-08-19T07:01:43;20.50;99.90
23405;DHT22;11875;49.356;2.718;2022-08-19T07:04:11;20.40;99.90
23405;DHT22;11875;49.356;2.718;2022-08-19T07:06:37;20.40;99.90
23405;DHT22;11875;49.356;2.718;2022-08-19T07:09:04;20.60;99.90
23405;DHT22;11875;49.356;2.718;2022-08-19T07:11:30;20.70;99.90
23405;DHT22;11875;49.356;2.718;2022-08-19T07:13:58;20.70;99.90
23405;DHT22;11875;49.356;2.718;2022-08-19T07:16:24;20.70;99.90
23405;DHT22;11875;49.356;2.718;2022-08-19T07:18:51;20.90;99.90
23405;DHT22;11875;49.356;2.718;2022-08-19T07:21:20;21.10;99.90
23405;DHT22;11875;49.356;2.718;2022-08-19T07:23:48;21.00;99.90
23405;DHT22;11875;49.356;2.718;2022-08-19T07:26:20;20.80;99.90
23405;DHT22;11875;49.356;2.718;2022-08-19T07:28:48;20.90;99.90
23405;DHT22;11875;49.356;2.718;2022-08-19T07:31:17;20.90;99.90
23405;DHT22;11875;49.356;2.718;2022-08-19T07:33:47;20.80;99.90
23405;DHT22;11875;49.356;2.718;2022-08-19T07:36:15;20.80;99.90
23405;DHT22;11875;49.356;2.718;2022-08-19T07:38:44;20.70;99.90
23405;DHT22;11875;49.356;2.718;2022-08-19T07:41:12;20.90;99.90
23405;DHT22;11875;49.356;2.718;2022-08-19T07:43:39;21.00;99.90
23405;DHT22;11875;49.356;2.718;2022-08-19T07:46:05;21.00;99.90
23405;DHT22;11875;49.356;2.718;2022-08-19T07:48:31;21.00;99.90
23405;DHT22;11875;49.356;2.718;2022-08-19T07:51:00;21.00;99.90
23405;DHT22;11875;49.356;2.718;2022-08-19T07:53:28;21.10;99.90
23405;DHT22;11875;49.356;2.718;2022-08-19T07:55:54;21.10;99.90
23405;DHT22;11875;49.356;2.718;2022-08-19T07:58:22;21.00;99.90
23405;DHT22;11875;49.356;2.718;2022-08-19T08:00:49;21.10;99.90
23405;DHT22;11875;49.356;2.718;2022-08-19T08:03:17;21.20;99.90
23405;DHT22;11875;49.356;2.718;2022-08-19T08:05:43;21.30;99.90
23405;DHT22;11875;49.356;2.718;2022-08-19T08:08:28;21.30;99.90
23405;DHT22;11875;49.356;2.718;2022-08-19T08:10:57;21.40;99.90
23405;DHT22;11875;49.356;2.718;2022-08-19T08:13:23;21.40;99.90
23405;DHT22;11875;49.356;2.718;2022-08-19T08:15:49;21.50;99.90
23405;DHT22;11875;49.356;2.718;2022-08-19T08:18:15;21.50;99.90
23405;DHT22;11875;49.356;2.718;2022-08-19T08:20:40;21.50;99.90
23405;DHT22;11875;49.356;2.718;2022-08-19T08:23:06;21.60;99.90
23405;DHT22;11875;49.356;2.718;2022-08-19T08:25:47;21.70;99.90
23405;DHT22;11875;49.356;2.718;2022-08-19T08:28:14;21.90;99.90
23405;DHT22;11875;49.356;2.718;2022-08-19T08:30:40;22.00;99.90
23405;DHT22;11875;49.356;2.718;2022-08-19T08:33:09;21.90;99.90
23405;DHT22;11875;49.356;2.718;2022-08-19T08:35:35;21.90;99.90
23405;DHT22;11875;49.356;2.718;2022-08-19T08:38:01;22.00;99.90
23405;DHT22;11875;49.356;2.718;2022-08-19T08:43:29;22.00;99.90
23405;DHT22;11875;49.356;2.718;2022-08-19T08:46:09;22.10;99.90
23405;DHT22;11875;49.356;2.718;2022-08-19T08:48:46;22.10;99.90
23405;DHT22;11875;49.356;2.718;2022-08-19T08:51:22;22.10;99.90
23405;DHT22;11875;49.356;2.718;2022-08-19T08:53:51;22.10;99.90
23405;DHT22;11875;49.356;2.718;2022-08-19T08:56:17;22.10;99.90
23405;DHT22;11875;49.356;2.718;2022-08-19T08:58:45;22.10;99.90
23405;DHT22;11875;49.356;2.718;2022-08-19T09:01:13;22.10;99.90
23405;DHT22;11875;49.356;2.718;2022-08-19T09:03:40;22.40;99.90
23405;DHT22;11875;49.356;2.718;2022-08-19T09:06:16;22.30;99.90
23405;DHT22;11875;49.356;2.718;2022-08-19T09:17:13;22.30;99.90
23405;DHT22;11875;49.356;2.718;2022-08-19T09:19:52;22.30;99.90
23405;DHT22;11875;49.356;2.718;2022-08-19T09:22:18;22.30;99.90
23405;DHT22;11875;49.356;2.718;2022-08-19T09:24:50;22.30;99.90
23405;DHT22;11875;49.356;2.718;2022-08-19T09:27:18;22.50;99.90
23405;DHT22;11875;49.356;2.718;2022-08-19T09:29:44;22.60;99.90
23405;DHT22;11875;49.356;2.718;2022-08-19T09:32:09;22.70;99.90
23405;DHT22;11875;49.356;2.718;2022-08-19T09:34:35;22.70;99.90
23405;DHT22;11875;49.356;2.718;2022-08-19T09:37:01;22.80;99.90
23405;DHT22;11875;49.356;2.718;2022-08-19T09:39:28;22.80;99.90
23405;DHT22;11875;49.356;2.718;2022-08-19T09:41:56;22.80;99.90
23405;DHT22;11875;49.356;2.718;2022-08-19T09:44:21;22.80;99.90
23405;DHT22;11875;49.356;2.718;2022-08-19T09:46:47;22.90;99.90
23405;DHT22;11875;49.356;2.718;2022-08-19T09:49:14;22.90;99.90
23405;DHT22;11875;49.356;2.718;2022-08-19T09:51:40;22.90;99.90
23405;DHT22;11875;49.356;2.718;2022-08-19T09:54:05;22.90;99.90
23405;DHT22;11875;49.356;2.718;2022-08-19T09:56:32;23.00;99.90
23405;DHT22;11875;49.356;2.718;2022-08-19T09:58:59;23.00;99.90
23405;DHT22;11875;49.356;2.718;2022-08-19T10:01:27;23.10;99.90
23405;DHT22;11875;49.356;2.718;2022-08-19T10:03:55;23.10;99.90
23405;DHT22;11875;49.356;2.718;2022-08-19T10:06:24;23.10;99.90
23405;DHT22;11875;49.356;2.718;2022-08-19T10:08:52;23.10;99.90
23405;DHT22;11875;49.356;2.718;2022-08-19T10:11:19;23.20;99.90
23405;DHT22;11875;49.356;2.718;2022-08-19T10:13:45;23.30;99.90
23405;DHT22;11875;49.356;2.718;2022-08-19T10:16:17;23.40;99.90
23405;DHT22;11875;49.356;2.718;2022-08-19T10:18:44;23.50;99.90
23405;DHT22;11875;49.356;2.718;2022-08-19T10:23:40;23.60;99.90
23405;DHT22;11875;49.356;2.718;2022-08-19T10:26:15;23.70;99.90
23405;DHT22;11875;49.356;2.718;2022-08-19T10:28:41;23.60;99.90
23405;DHT22;11875;49.356;2.718;2022-08-19T10:31:09;23.60;99.90
23405;DHT22;11875;49.356;2.718;2022-08-19T10:33:36;23.70;99.90
23405;DHT22;11875;49.356;2.718;2022-08-19T10:36:09;23.70;99.90
23405;DHT22;11875;49.356;2.718;2022-08-19T10:38:35;23.80;99.90
23405;DHT22;11875;49.356;2.718;2022-08-19T10:41:12;23.80;99.90
23405;DHT22;11875;49.356;2.718;2022-08-19T10:43:39;23.80;99.90
23405;DHT22;11875;49.356;2.718;2022-08-19T10:46:10;23.80;99.90
23405;DHT22;11875;49.356;2.718;2022-08-19T10:48:36;23.80;99.90
23405;DHT22;11875;49.356;2.718;2022-08-19T10:51:02;23.80;99.90
23405;DHT22;11875;49.356;2.718;2022-08-19T10:53:47;23.90;99.90
23405;DHT22;11875;49.356;2.718;2022-08-19T10:56:13;24.00;99.90
23405;DHT22;11875;49.356;2.718;2022-08-19T10:58:57;24.00;99.90
23405;DHT22;11875;49.356;2.718;2022-08-19T11:01:25;23.90;99.90
23405;DHT22;11875;49.356;2.718;2022-08-19T11:03:50;23.90;99.90
23405;DHT22;11875;49.356;2.718;2022-08-19T11:06:16;23.90;99.90
23405;DHT22;11875;49.356;2.718;2022-08-19T11:08:42;23.90;99.90
23405;DHT22;11875;49.356;2.718;2022-08-19T11:11:11;23.90;99.90
23405;DHT22;11875;49.356;2.718;2022-08-19T11:13:39;24.00;99.90
23405;DHT22;11875;49.356;2.718;2022-08-19T11:16:14;24.00;99.90
23405;DHT22;11875;49.356;2.718;2022-08-19T11:18:43;24.00;99.90
23405;DHT22;11875;49.356;2.718;2022-08-19T11:21:13;24.00;99.90
23405;DHT22;11875;49.356;2.718;2022-08-19T11:23:40;24.00;99.90
23405;DHT22;11875;49.356;2.718;2022-08-19T11:26:06;24.00;99.90
23405;DHT22;11875;49.356;2.718;2022-08-19T11:28:31;24.00;99.90
23405;DHT22;11875;49.356;2.718;2022-08-19T11:30:57;24.00;99.90
23405;DHT22;11875;49.356;2.718;2022-08-19T11:33:23;24.00;99.90
23405;DHT22;11875;49.356;2.718;2022-08-19T11:35:48;24.10;99.90
23405;DHT22;11875;49.356;2.718;2022-08-19T11:38:14;24.00;99.90
23405;DHT22;11875;49.356;2.718;2022-08-19T11:40:40;23.90;99.90
23405;DHT22;11875;49.356;2.718;2022-08-19T11:43:07;24.00;99.90
23405;DHT22;11875;49.356;2.718;2022-08-19T11:45:35;24.10;99.90
23405;DHT22;11875;49.356;2.718;2022-08-19T11:48:01;24.20;99.90
23405;DHT22;11875;49.356;2.718;2022-08-19T11:50:27;24.10;99.90
23405;DHT22;11875;49.356;2.718;2022-08-19T11:52:54;24.10;99.90
23405;DHT22;11875;49.356;2.718;2022-08-19T11:55:21;24.10;99.90
23405;DHT22;11875;49.356;2.718;2022-08-19T11:57:47;24.20;99.90
23405;DHT22;11875;49.356;2.718;2022-08-19T12:00:13;24.20;99.90
23405;DHT22;11875;49.356;2.718;2022-08-19T12:02:39;24.40;99.90
23405;DHT22;11875;49.356;2.718;2022-08-19T12:05:06;24.40;99.90
23405;DHT22;11875;49.356;2.718;2022-08-19T12:07:32;24.40;99.90
23405;DHT22;11875;49.356;2.718;2022-08-19T12:09:59;24.40;99.90
23405;DHT22;11875;49.356;2.718;2022-08-19T12:12:25;24.40;99.90
23405;DHT22;11875;49.356;2.718;2022-08-19T12:14:51;24.30;99.90
23405;DHT22;11875;49.356;2.718;2022-08-19T12:17:23;24.50;99.90
23405;DHT22;11875;49.356;2.718;2022-08-19T12:19:49;24.50;99.90
23405;DHT22;11875;49.356;2.718;2022-08-19T12:22:14;24.40;99.90
23405;DHT22;11875;49.356;2.718;2022-08-19T12:24:40;24.40;99.90
23405;DHT22;11875;49.356;2.718;2022-08-19T12:27:05;24.40;99.90
23405;DHT22;11875;49.356;2.718;2022-08-19T12:29:31;24.50;99.90
23405;DHT22;11875;49.356;2.718;2022-08-19T12:31:58;24.40;99.90
23405;DHT22;11875;49.356;2.718;2022-08-19T12:34:30;24.30;99.90
23405;DHT22;11875;49.356;2.718;2022-08-19T12:37:01;24.20;99.90
23405;DHT22;11875;49.356;2.718;2022-08-19T12:39:27;24.20;99.90
23405;DHT22;11875;49.356;2.718;2022-08-19T12:41:53;24.40;99.90
23405;DHT22;11875;49.356;2.718;2022-08-19T12:44:19;24.50;99.90
23405;DHT22;11875;49.356;2.718;2022-08-19T12:46:46;24.50;99.90
23405;DHT22;11875;49.356;2.718;2022-08-19T12:49:11;24.50;99.90
23405;DHT22;11875;49.356;2.718;2022-08-19T12:51:37;24.50;99.90
23405;DHT22;11875;49.356;2.718;2022-08-19T12:54:03;24.50;99.90
23405;DHT22;11875;49.356;2.718;2022-08-19T12:56:30;24.50;99.90
23405;DHT22;11875;49.356;2.718;2022-08-19T12:58:56;24.50;99.90
23405;DHT22;11875;49.356;2.718;2022-08-19T13:01:22;24.50;99.90
23405;DHT22;11875;49.356;2.718;2022-08-19T13:03:47;24.50;99.90
23405;DHT22;11875;49.356;2.718;2022-08-19T13:06:14;24.50;99.90
23405;DHT22;11875;49.356;2.718;2022-08-19T13:08:40;24.60;99.90
23405;DHT22;11875;49.356;2.718;2022-08-19T13:11:11;24.60;99.90
23405;DHT22;11875;49.356;2.718;2022-08-19T13:13:42;24.70;99.90
23405;DHT22;11875;49.356;2.718;2022-08-19T13:16:10;24.70;99.90
23405;DHT22;11875;49.356;2.718;2022-08-19T13:18:36;24.80;99.90
23405;DHT22;11875;49.356;2.718;2022-08-19T13:21:08;24.90;99.90
23405;DHT22;11875;49.356;2.718;2022-08-19T13:23:35;25.10;99.90
23405;DHT22;11875;49.356;2.718;2022-08-19T13:26:05;25.30;99.90
23405;DHT22;11875;49.356;2.718;2022-08-19T13:28:32;25.40;99.90
23405;DHT22;11875;49.356;2.718;2022-08-19T13:31:19;25.60;99.90
23405;DHT22;11875;49.356;2.718;2022-08-19T13:34:04;25.60;99.90
23405;DHT22;11875;49.356;2.718;2022-08-19T13:36:32;25.60;99.90
23405;DHT22;11875;49.356;2.718;2022-08-19T13:38:57;25.60;99.90
23405;DHT22;11875;49.356;2.718;2022-08-19T13:41:24;25.80;99.90
23405;DHT22;11875;49.356;2.718;2022-08-19T13:43:50;26.00;99.90
23405;DHT22;11875;49.356;2.718;2022-08-19T13:46:16;26.10;99.90
23405;DHT22;11875;49.356;2.718;2022-08-19T13:48:41;26.10;99.90
23405;DHT22;11875;49.356;2.718;2022-08-19T13:51:07;25.90;99.90
23405;DHT22;11875;49.356;2.718;2022-08-19T13:53:38;25.90;99.90
23405;DHT22;11875;49.356;2.718;2022-08-19T13:56:09;26.00;99.90
23405;DHT22;11875;49.356;2.718;2022-08-19T13:58:36;26.00;99.90
23405;DHT22;11875;49.356;2.718;2022-08-19T14:01:03;26.00;99.90
23405;DHT22;11875;49.356;2.718;2022-08-19T14:03:30;25.90;99.90
23405;DHT22;11875;49.356;2.718;2022-08-19T14:05:55;25.80;99.90
23405;DHT22;11875;49.356;2.718;2022-08-19T14:08:22;25.80;99.90
23405;DHT22;11875;49.356;2.718;2022-08-19T14:10:48;25.90;99.90
23405;DHT22;11875;49.356;2.718;2022-08-19T14:13:18;26.10;99.90
23405;DHT22;11875;49.356;2.718;2022-08-19T14:15:45;26.40;99.90
23405;DHT22;11875;49.356;2.718;2022-08-19T14:18:11;26.60;99.90
23405;DHT22;11875;49.356;2.718;2022-08-19T14:20:37;26.50;99.90
23405;DHT22;11875;49.356;2.718;2022-08-19T14:23:03;26.50;99.90
23405;DHT22;11875;49.356;2.718;2022-08-19T14:25:31;26.50;99.90
23405;DHT22;11875;49.356;2.718;2022-08-19T14:27:58;26.40;99.90
23405;DHT22;11875;49.356;2.718;2022-08-19T14:30:30;26.40;99.90
23405;DHT22;11875;49.356;2.718;2022-08-19T14:32:58;26.10;99.90
23405;DHT22;11875;49.356;2.718;2022-08-19T14:35:24;25.90;99.90
23405;DHT22;11875;49.356;2.718;2022-08-19T14:37:51;25.80;99.90
23405;DHT22;11875;49.356;2.718;2022-08-19T14:40:23;25.90;99.90
23405;DHT22;11875;49.356;2.718;2022-08-19T14:43:03;25.90;99.90
23405;DHT22;11875;49.356;2.718;2022-08-19T14:45:31;25.90;99.90
23405;DHT22;11875;49.356;2.718;2022-08-19T14:47:57;25.90;99.90
23405;DHT22;11875;49.356;2.718;2022-08-19T14:50:25;25.70;99.90
23405;DHT22;11875;49.356;2.718;2022-08-19T14:52:58;25.70;99.90
23405;DHT22;11875;49.356;2.718;2022-08-19T14:55:24;25.60;99.90
23405;DHT22;11875;49.356;2.718;2022-08-19T14:57:49;25.50;99.90
23405;DHT22;11875;49.356;2.718;2022-08-19T15:00:15;25.40;99.90
23405;DHT22;11875;49.356;2.718;2022-08-19T15:02:41;25.40;99.90
23405;DHT22;11875;49.356;2.718;2022-08-19T15:05:09;25.40;99.90
23405;DHT22;11875;49.356;2.718;2022-08-19T15:07:35;25.40;99.90
23405;DHT22;11875;49.356;2.718;2022-08-19T15:10:01;25.40;99.90
23405;DHT22;11875;49.356;2.718;2022-08-19T15:12:26;25.30;99.90
23405;DHT22;11875;49.356;2.718;2022-08-19T15:14:52;25.30;99.90
23405;DHT22;11875;49.356;2.718;2022-08-19T15:17:18;25.30;99.90
23405;DHT22;11875;49.356;2.718;2022-08-19T15:19:44;25.20;99.90
23405;DHT22;11875;49.356;2.718;2022-08-19T15:22:11;25.10;99.90
23405;DHT22;11875;49.356;2.718;2022-08-19T15:24:36;25.10;99.90
23405;DHT22;11875;49.356;2.718;2022-08-19T15:27:03;25.10;99.90
23405;DHT22;11875;49.356;2.718;2022-08-19T15:29:30;25.10;99.90
23405;DHT22;11875;49.356;2.718;2022-08-19T15:31:57;25.10;99.90
23405;DHT22;11875;49.356;2.718;2022-08-19T15:34:24;25.20;99.90
23405;DHT22;11875;49.356;2.718;2022-08-19T15:36:51;25.30;99.90
23405;DHT22;11875;49.356;2.718;2022-08-19T15:39:17;25.50;99.90
23405;DHT22;11875;49.356;2.718;2022-08-19T15:41:45;25.60;99.90
23405;DHT22;11875;49.356;2.718;2022-08-19T15:44:13;25.60;99.90
23405;DHT22;11875;49.356;2.718;2022-08-19T15:46:40;25.70;99.90
23405;DHT22;11875;49.356;2.718;2022-08-19T15:49:07;25.80;99.90